Fort Sumner, New Mexico
Current Conditions -  °F | °C
As of 8:56 AM on Tuesday 21 Oct 2014 (Local Time) from K4MR Reporting Station
Few Clouds Few Clouds  
Wind Chill: 56°   Ceiling: Unl
Heat Index: 56°   Visibility: 10mi
Dew Point: 53°   Wind: 2mph
Humidity: 90%   Direction: 90°E
Pressure: 30.18"   Gusts: NA
Location:  34.47°N, 104.25°W
Report Text: K4MR 211456Z AUTO 09002KT 10SM FEW085 13/12 A3018 RMK AO2 SLP190 T01330117 53008
Loading
Personal Weather Stations






























Interactive Weather Map
Tropical Storm Tracking
New forecast layout! Learn more

10-Day Weather Forecast

Advertisements
Track Severe Weather on mobile